createdAt,value
2023-01-25T00:04:07.262Z,101505.41
2023-01-25T00:14:14.323Z,101485.27
2023-01-25T00:24:23.264Z,101471.32
2023-01-25T00:34:52.203Z,101483.56
2023-01-25T00:44:58.372Z,101480.63
2023-01-25T00:55:04.855Z,101477.30
2023-01-25T01:05:12.646Z,101481.20
2023-01-25T01:15:19.260Z,101474.77
2023-01-25T01:25:24.069Z,101460.83
2023-01-25T01:35:31.389Z,101450.27
2023-01-25T01:45:56.110Z,101448.86
2023-01-25T01:56:04.966Z,101445.88
2023-01-25T02:06:15.776Z,101445.66
2023-01-25T02:16:26.414Z,101436.86
2023-01-25T02:26:32.945Z,101431.34
2023-01-25T02:36:39.832Z,101418.59
2023-01-25T02:46:45.559Z,101414.77
2023-01-25T02:56:53.817Z,101415.53
2023-01-25T03:06:59.790Z,101409.95
2023-01-25T03:17:05.902Z,101392.92
2023-01-25T03:27:13.261Z,101383.11
2023-01-25T03:37:19.376Z,101378.06
2023-01-25T03:47:25.730Z,101376.55
2023-01-25T03:57:31.626Z,101362.58
2023-01-25T04:07:38.779Z,101356.48
2023-01-25T04:17:44.798Z,101350.63
2023-01-25T04:28:10.570Z,101338.75
2023-01-25T04:38:21.047Z,101339.20
2023-01-25T04:48:27.268Z,101341.77
2023-01-25T04:58:33.088Z,101346.15
2023-01-25T05:08:45.260Z,101334.13
2023-01-25T05:18:51.140Z,101327.22
2023-01-25T05:28:59.414Z,101321.91
2023-01-25T05:39:09.162Z,101301.77
2023-01-25T05:49:17.172Z,101302.44
2023-01-25T05:59:23.810Z,101293.34
2023-01-25T06:09:30.865Z,101278.39
2023-01-25T06:19:35.543Z,101269.27
2023-01-25T06:29:41.333Z,101278.54
2023-01-25T06:39:46.220Z,101295.61
2023-01-25T06:49:52.126Z,101282.28
2023-01-25T07:00:19.363Z,101272.56
2023-01-25T07:10:25.841Z,101267.98
2023-01-25T07:20:35.442Z,101261.67
2023-01-25T07:30:43.166Z,101248.48
2023-01-25T07:40:57.337Z,101237.07
2023-01-25T07:51:16.607Z,101235.83
2023-01-25T08:01:24.962Z,101236.98
2023-01-25T08:11:32.837Z,101227.94
2023-01-25T08:21:38.742Z,101205.81
2023-01-25T08:31:46.326Z,101191.48
2023-01-25T08:41:53.300Z,101180.98
2023-01-25T08:52:21.137Z,101167.77
2023-01-25T09:02:28.015Z,101152.05
2023-01-25T09:12:54.683Z,101144.96
2023-01-25T09:23:19.704Z,101160.30
2023-01-25T09:33:31.907Z,101163.35
2023-01-25T09:44:15.065Z,101156.69
2023-01-25T09:54:22.325Z,101144.33
2023-01-25T10:04:52.407Z,101132.96
2023-01-25T10:15:23.562Z,101112.79
2023-01-25T10:25:36.944Z,101104.71
2023-01-25T10:36:06.077Z,101093.55
2023-01-25T10:46:32.033Z,101080.25
2023-01-25T10:56:58.143Z,101074.59
2023-01-25T11:07:30.910Z,101064.64
2023-01-25T11:18:05.283Z,101039.03
2023-01-25T11:28:31.199Z,101023.73
2023-01-25T11:39:17.410Z,101011.32
2023-01-25T11:49:55.611Z,101000.63
2023-01-25T12:00:41.817Z,100987.54
2023-01-25T12:11:10.579Z,100967.56
2023-01-25T12:21:49.542Z,100948.63
2023-01-25T12:32:19.424Z,100931.05
2023-01-25T12:42:48.879Z,100913.14
2023-01-25T12:53:20.942Z,100896.95
2023-01-25T13:04:00.482Z,100885.08
2023-01-25T13:14:42.802Z,100876.62
2023-01-25T13:25:22.384Z,100858.54
2023-01-25T13:35:47.920Z,100849.59
2023-01-25T13:46:17.343Z,100851.13
2023-01-25T13:56:43.034Z,100832.22
2023-01-25T14:07:15.960Z,100822.23
2023-01-25T14:17:41.480Z,100822.06
2023-01-25T14:28:14.785Z,100812.09
2023-01-25T14:38:41.913Z,100804.33
2023-01-25T14:49:17.908Z,100789.70
2023-01-25T14:59:45.811Z,100771.11
2023-01-25T15:10:24.088Z,100756.50
2023-01-25T15:20:50.212Z,100743.93
2023-01-25T15:31:19.633Z,100735.84
2023-01-25T15:41:45.967Z,100721.05
2023-01-25T15:52:13.805Z,100714.86
2023-01-25T16:02:39.549Z,100707.98
2023-01-25T16:13:05.225Z,100691.30
2023-01-25T16:23:31.021Z,100676.51
2023-01-25T16:33:57.091Z,100663.95
2023-01-25T16:44:22.802Z,100656.73
2023-01-25T16:54:48.616Z,100653.46
2023-01-25T17:05:14.396Z,100650.54
2023-01-25T17:15:40.229Z,100648.82
2023-01-25T17:26:07.842Z,100622.67
2023-01-25T17:36:33.546Z,100608.56
2023-01-25T17:46:59.258Z,100593.27
2023-01-25T17:57:26.502Z,100578.30
2023-01-25T18:07:52.057Z,100576.05
2023-01-25T18:18:17.596Z,100575.52
2023-01-25T18:28:43.587Z,100570.23
2023-01-25T18:39:09.748Z,100560.60
2023-01-25T18:49:35.907Z,100546.67
2023-01-25T19:00:01.626Z,100540.14
2023-01-25T19:10:27.574Z,100524.14
2023-01-25T19:20:53.338Z,100516.92
2023-01-25T19:31:21.322Z,100517.63
2023-01-25T19:41:47.451Z,100503.02
2023-01-25T19:52:13.274Z,100488.77
2023-01-25T20:02:38.972Z,100475.86
2023-01-25T20:13:04.665Z,100466.22
2023-01-25T20:23:34.372Z,100453.33
2023-01-25T20:34:01.746Z,100443.55
2023-01-25T20:44:29.850Z,100434.45
2023-01-25T20:54:35.962Z,100427.41
2023-01-25T21:04:41.867Z,100421.73
2023-01-25T21:14:48.650Z,100415.19
2023-01-25T21:24:52.975Z,100413.27
2023-01-25T21:34:58.646Z,100404.48
2023-01-25T21:45:22.788Z,100411.03
2023-01-25T21:55:29.043Z,100408.67
2023-01-25T22:05:35.370Z,100402.30
2023-01-25T22:15:41.309Z,100385.96
2023-01-25T22:25:48.801Z,100378.04
2023-01-25T22:35:54.684Z,100371.66
2023-01-25T22:46:00.812Z,100364.97
2023-01-25T22:56:09.379Z,100347.57
2023-01-25T23:06:17.642Z,100336.89
2023-01-25T23:16:23.746Z,100317.08
2023-01-25T23:26:30.362Z,100299.02
2023-01-25T23:36:38.739Z,100286.46
2023-01-25T23:46:44.914Z,100280.27
2023-01-25T23:56:50.817Z,100264.64
